createdAt,value
2022-09-16T00:00:34.678Z,11.60
2022-09-16T00:03:01.637Z,11.50
2022-09-16T00:05:28.403Z,11.50
2022-09-16T00:07:56.018Z,11.50
2022-09-16T00:10:23.633Z,11.40
2022-09-16T00:12:50.504Z,11.30
2022-09-16T00:15:17.659Z,11.30
2022-09-16T00:17:44.336Z,11.20
2022-09-16T00:20:11.076Z,11.20
2022-09-16T00:22:37.841Z,11.10
2022-09-16T00:25:04.948Z,11.10
2022-09-16T00:27:31.697Z,11.10
2022-09-16T00:29:58.425Z,11.10
2022-09-16T00:32:25.098Z,11.10
2022-09-16T00:34:52.092Z,11.10
2022-09-16T00:37:18.923Z,11.00
2022-09-16T00:39:49.271Z,11.10
2022-09-16T00:42:17.694Z,11.10
2022-09-16T00:45:00.536Z,11.10
2022-09-16T00:47:38.612Z,11.10
2022-09-16T00:50:19.371Z,11.00
2022-09-16T00:52:46.882Z,11.00
2022-09-16T00:55:21.441Z,11.00
2022-09-16T00:57:48.730Z,11.10
2022-09-16T01:00:15.677Z,11.00
2022-09-16T01:02:44.688Z,11.00
2022-09-16T01:05:17.118Z,11.10
2022-09-16T01:07:51.772Z,11.00
2022-09-16T01:10:21.317Z,11.00
2022-09-16T01:13:04.721Z,11.00
2022-09-16T01:15:40.292Z,11.00
2022-09-16T01:18:23.482Z,11.00
2022-09-16T01:21:06.515Z,11.00
2022-09-16T01:23:44.618Z,11.00
2022-09-16T01:26:50.125Z,11.00
2022-09-16T01:29:36.582Z,11.00
2022-09-16T01:32:33.518Z,11.10
2022-09-16T01:35:38.249Z,11.10
2022-09-16T01:38:28.211Z,11.10
2022-09-16T01:41:21.249Z,11.20
2022-09-16T01:44:06.493Z,11.20
2022-09-16T01:46:48.671Z,11.30
2022-09-16T01:49:33.311Z,11.30
2022-09-16T01:52:22.058Z,11.30
2022-09-16T01:54:56.044Z,11.30
2022-09-16T01:57:40.960Z,11.30
2022-09-16T02:00:11.152Z,11.30
2022-09-16T02:02:53.971Z,11.20
2022-09-16T02:05:26.695Z,11.20
2022-09-16T02:08:01.332Z,11.20
2022-09-16T02:10:40.951Z,11.10
2022-09-16T02:13:28.213Z,11.10
2022-09-16T02:15:59.200Z,11.00
2022-09-16T02:18:30.345Z,11.00
2022-09-16T02:20:59.130Z,11.00
2022-09-16T02:23:33.179Z,10.90
2022-09-16T02:26:02.766Z,10.90
2022-09-16T02:28:39.756Z,10.90
2022-09-16T02:31:08.418Z,10.80
2022-09-16T02:33:58.537Z,10.80
2022-09-16T02:36:27.481Z,10.80
2022-09-16T02:39:03.883Z,10.70
2022-09-16T02:41:30.790Z,10.80
2022-09-16T02:43:57.447Z,10.70
2022-09-16T02:46:27.009Z,10.70
2022-09-16T02:49:16.373Z,10.70
2022-09-16T02:52:12.256Z,10.70
2022-09-16T02:55:06.684Z,10.70
2022-09-16T02:57:33.485Z,10.70
2022-09-16T03:00:00.311Z,10.60
2022-09-16T03:02:27.650Z,10.60
2022-09-16T03:04:54.565Z,10.60
2022-09-16T03:07:21.362Z,10.60
2022-09-16T03:09:50.026Z,10.60
2022-09-16T03:12:34.788Z,10.60
2022-09-16T03:15:26.488Z,10.60
2022-09-16T03:18:27.364Z,10.50
2022-09-16T03:21:05.629Z,10.60
2022-09-16T03:24:10.254Z,10.60
2022-09-16T03:26:55.378Z,10.60
2022-09-16T03:29:26.225Z,10.50
2022-09-16T03:32:17.533Z,10.50
2022-09-16T03:34:52.640Z,10.50
2022-09-16T03:37:21.178Z,10.50
2022-09-16T03:39:53.074Z,10.50
2022-09-16T03:42:20.513Z,10.50
2022-09-16T03:44:47.222Z,10.50
2022-09-16T03:47:14.774Z,10.50
2022-09-16T03:49:41.518Z,10.50
2022-09-16T03:52:08.669Z,10.40
2022-09-16T03:54:36.897Z,10.50
2022-09-16T03:57:04.802Z,10.40
2022-09-16T03:59:31.703Z,10.40
2022-09-16T04:01:58.502Z,10.40
2022-09-16T04:04:25.455Z,10.30
2022-09-16T04:06:52.160Z,10.30
2022-09-16T04:09:19.007Z,10.30
2022-09-16T04:11:45.698Z,10.30
2022-09-16T04:14:12.348Z,10.30
2022-09-16T04:16:44.312Z,10.30
2022-09-16T04:19:13.406Z,10.40
2022-09-16T04:21:41.823Z,10.40
2022-09-16T04:24:12.865Z,10.40
2022-09-16T04:26:40.696Z,10.40
2022-09-16T04:29:07.409Z,10.40
2022-09-16T04:31:34.239Z,10.30
2022-09-16T04:34:05.046Z,10.30
2022-09-16T04:36:32.568Z,10.30
2022-09-16T04:38:59.406Z,10.40
2022-09-16T04:41:27.376Z,10.40
2022-09-16T04:43:56.613Z,10.30
2022-09-16T04:46:25.604Z,10.30
2022-09-16T04:48:53.581Z,10.30
2022-09-16T04:51:22.518Z,10.30
2022-09-16T04:53:49.970Z,10.30
2022-09-16T04:56:20.186Z,10.30
2022-09-16T04:58:49.348Z,10.30
2022-09-16T05:01:18.457Z,10.30
2022-09-16T05:03:50.354Z,10.30
2022-09-16T05:06:20.890Z,10.30
2022-09-16T05:08:49.163Z,10.40
2022-09-16T05:11:19.376Z,10.40
2022-09-16T05:13:46.582Z,10.40
2022-09-16T05:16:15.391Z,10.50
2022-09-16T05:18:43.807Z,10.50
2022-09-16T05:21:15.066Z,10.60
2022-09-16T05:23:46.750Z,10.60
2022-09-16T05:26:22.659Z,10.70
2022-09-16T05:28:50.862Z,10.90
2022-09-16T05:31:29.096Z,11.10
2022-09-16T05:34:01.856Z,11.40
2022-09-16T05:36:30.926Z,11.70
2022-09-16T05:39:22.222Z,11.90
2022-09-16T05:41:45.359Z,12.00
2022-09-16T05:44:12.212Z,12.00
2022-09-16T05:46:41.353Z,12.00
2022-09-16T05:49:08.975Z,12.00
2022-09-16T05:51:38.316Z,12.00
2022-09-16T05:54:05.186Z,12.10
2022-09-16T05:56:31.864Z,12.50
2022-09-16T05:59:00.039Z,12.80
2022-09-16T06:01:32.219Z,12.90
2022-09-16T06:04:02.199Z,12.80
2022-09-16T06:06:33.835Z,12.70
2022-09-16T06:09:16.041Z,12.50
2022-09-16T06:11:46.080Z,12.40
2022-09-16T06:14:14.296Z,12.20
2022-09-16T06:16:42.195Z,12.10
2022-09-16T06:19:13.164Z,12.10
2022-09-16T06:21:40.872Z,12.50
2022-09-16T06:24:08.919Z,13.30
2022-09-16T06:26:41.254Z,14.10
2022-09-16T06:29:08.996Z,14.40
2022-09-16T06:31:37.623Z,14.40
2022-09-16T06:34:05.758Z,14.30
2022-09-16T06:36:40.347Z,14.20
2022-09-16T06:39:12.288Z,14.10
2022-09-16T06:41:39.544Z,13.90
2022-09-16T06:44:06.267Z,13.80
2022-09-16T06:46:32.898Z,14.30
2022-09-16T06:49:05.059Z,14.60
2022-09-16T06:51:33.618Z,14.70
2022-09-16T06:54:05.824Z,14.80
2022-09-16T06:56:35.966Z,15.10
2022-09-16T06:59:03.559Z,15.80
2022-09-16T07:01:31.515Z,16.50
2022-09-16T07:04:01.593Z,17.10
2022-09-16T07:09:17.262Z,18.30
2022-09-16T07:11:44.057Z,18.80
2022-09-16T07:14:10.955Z,19.00
2022-09-16T07:16:37.659Z,18.60
2022-09-16T07:19:05.479Z,18.30
2022-09-16T07:21:32.494Z,17.90
2022-09-16T07:24:02.521Z,17.70
2022-09-16T07:26:31.784Z,17.20
2022-09-16T07:29:03.904Z,16.50
2022-09-16T07:31:33.495Z,15.80
2022-09-16T07:34:04.729Z,15.20
2022-09-16T07:36:45.170Z,15.10
2022-09-16T07:39:14.163Z,15.10
2022-09-16T07:41:43.148Z,14.90
2022-09-16T07:44:15.273Z,14.70
2022-09-16T07:46:42.585Z,14.60
2022-09-16T07:49:14.476Z,15.10
2022-09-16T07:51:41.784Z,16.10
2022-09-16T07:54:11.894Z,16.80
2022-09-16T07:56:40.069Z,17.30
2022-09-16T07:59:08.671Z,17.40
2022-09-16T08:01:37.857Z,17.10
2022-09-16T08:04:06.835Z,16.80
2022-09-16T08:06:34.048Z,16.30
2022-09-16T08:09:10.419Z,15.90
2022-09-16T08:11:47.998Z,15.50
2022-09-16T08:14:14.779Z,15.00
2022-09-16T08:16:41.554Z,14.60
2022-09-16T08:19:09.491Z,14.30
2022-09-16T08:21:36.178Z,14.20
2022-09-16T08:24:02.948Z,14.10
2022-09-16T08:26:29.754Z,14.00
2022-09-16T08:29:08.294Z,14.10
2022-09-16T08:31:36.574Z,14.10
2022-09-16T08:34:03.499Z,14.10
2022-09-16T08:36:30.318Z,14.20
2022-09-16T08:38:57.859Z,14.60
2022-09-16T08:41:26.941Z,16.20
2022-09-16T08:44:22.816Z,17.70
2022-09-16T08:47:17.393Z,17.70
2022-09-16T08:49:46.751Z,17.00
2022-09-16T08:52:37.362Z,16.20
2022-09-16T08:55:12.813Z,15.70
2022-09-16T08:57:44.351Z,15.20
2022-09-16T09:00:17.466Z,14.90
2022-09-16T09:02:53.793Z,14.80
2022-09-16T09:05:43.866Z,15.90
2022-09-16T09:08:41.986Z,17.10
2022-09-16T09:11:35.080Z,18.20
2022-09-16T09:14:39.906Z,17.90
2022-09-16T09:17:49.924Z,17.10
2022-09-16T09:20:33.698Z,16.90
2022-09-16T09:23:18.559Z,17.00
2022-09-16T09:26:03.321Z,17.80
2022-09-16T09:28:51.548Z,19.10
2022-09-16T09:31:43.280Z,20.70
2022-09-16T09:34:37.006Z,21.00
2022-09-16T09:37:23.869Z,20.30
2022-09-16T09:40:20.140Z,19.70
2022-09-16T09:43:14.509Z,18.80
2022-09-16T09:45:52.662Z,17.70
2022-09-16T09:48:26.794Z,17.20
2022-09-16T09:50:53.940Z,17.90
2022-09-16T09:53:33.320Z,17.80
2022-09-16T09:56:29.931Z,17.50
2022-09-16T09:59:06.546Z,18.50
2022-09-16T10:01:33.396Z,20.00
2022-09-16T10:04:00.373Z,21.30
2022-09-16T10:06:33.361Z,22.10
2022-09-16T10:09:00.185Z,22.60
2022-09-16T10:11:31.205Z,23.30
2022-09-16T10:14:00.758Z,23.60
2022-09-16T10:16:32.262Z,23.10
2022-09-16T10:19:04.465Z,22.50
2022-09-16T10:21:47.876Z,21.80
2022-09-16T10:24:36.903Z,20.60
2022-09-16T10:27:21.663Z,19.30
2022-09-16T10:30:02.483Z,18.50
2022-09-16T10:32:29.495Z,17.80
2022-09-16T10:34:56.840Z,17.00
2022-09-16T10:37:27.856Z,16.40
2022-09-16T10:39:57.648Z,15.90
2022-09-16T10:42:26.598Z,15.60
2022-09-16T10:44:59.428Z,15.30
2022-09-16T10:47:32.485Z,15.20
2022-09-16T10:50:05.745Z,15.10
2022-09-16T10:52:42.719Z,15.10
2022-09-16T10:55:24.073Z,15.10
2022-09-16T10:57:52.178Z,15.10
2022-09-16T11:00:23.177Z,15.00
2022-09-16T11:03:06.954Z,14.80
2022-09-16T11:05:46.886Z,14.20
2022-09-16T11:08:13.731Z,13.60
2022-09-16T11:11:11.103Z,12.90
2022-09-16T11:13:48.455Z,12.30
2022-09-16T11:16:27.917Z,11.90
2022-09-16T11:19:12.616Z,11.70
2022-09-16T11:22:13.489Z,11.70
2022-09-16T11:24:48.969Z,11.90
2022-09-16T11:27:55.610Z,12.60
2022-09-16T11:31:34.654Z,13.40
2022-09-16T11:34:36.507Z,14.40
2022-09-16T11:37:38.352Z,16.20
2022-09-16T11:40:28.911Z,18.50
2022-09-16T11:43:32.217Z,20.20
2022-09-16T11:46:16.717Z,21.20
2022-09-16T11:49:00.760Z,21.60
2022-09-16T11:51:41.062Z,22.10
2022-09-16T12:17:18.528Z,23.70
2022-09-16T12:20:03.165Z,21.60
2022-09-16T12:22:48.884Z,20.20
2022-09-16T12:25:23.206Z,19.00
2022-09-16T12:28:03.496Z,18.50
2022-09-16T12:30:38.241Z,18.90
2022-09-16T12:33:14.823Z,20.10
2022-09-16T12:35:55.124Z,21.30
2022-09-16T12:38:22.942Z,22.00
2022-09-16T12:41:37.926Z,22.40
2022-09-16T12:44:33.597Z,22.70
2022-09-16T12:47:15.058Z,22.90
2022-09-16T12:50:19.230Z,22.90
2022-09-16T12:53:00.989Z,23.30
2022-09-16T12:55:49.551Z,23.50
2022-09-16T12:58:35.077Z,23.30
2022-09-16T13:01:25.022Z,23.90
2022-09-16T13:04:04.470Z,24.50
2022-09-16T13:06:39.532Z,24.50
2022-09-16T13:09:36.149Z,24.10
2022-09-16T13:14:56.851Z,20.40
2022-09-16T13:17:38.284Z,18.80
2022-09-16T13:20:28.272Z,18.70
2022-09-16T13:23:06.638Z,19.80
2022-09-16T13:25:49.999Z,20.90
2022-09-16T13:28:42.035Z,21.80
2022-09-16T13:31:15.189Z,22.30
2022-09-16T13:33:46.159Z,22.30
2022-09-16T13:36:25.392Z,22.30
2022-09-16T13:38:57.753Z,22.20
2022-09-16T13:41:37.070Z,22.20
2022-09-16T13:44:26.809Z,22.30
2022-09-16T13:46:53.970Z,22.00
2022-09-16T13:49:27.966Z,22.00
2022-09-16T13:51:55.100Z,22.30
2022-09-16T13:54:34.876Z,22.40
2022-09-16T13:57:15.547Z,22.70
2022-09-16T13:59:51.675Z,22.90
2022-09-16T14:02:29.291Z,23.00
2022-09-16T14:05:21.315Z,23.00
2022-09-16T14:08:32.415Z,22.90
2022-09-16T14:11:08.985Z,22.80
2022-09-16T14:13:49.030Z,22.60
2022-09-16T14:16:25.072Z,22.40
2022-09-16T14:19:06.004Z,22.40
2022-09-16T14:21:33.288Z,22.30
2022-09-16T14:24:16.814Z,21.90
2022-09-16T14:26:57.089Z,21.70
2022-09-16T14:29:27.063Z,21.40
2022-09-16T14:31:56.288Z,21.10
2022-09-16T14:34:35.013Z,21.00
2022-09-16T14:37:02.538Z,20.90
2022-09-16T14:39:30.193Z,20.80
2022-09-16T14:42:05.444Z,20.90
2022-09-16T14:44:37.938Z,21.00
2022-09-16T14:47:28.342Z,20.70
2022-09-16T14:50:29.985Z,20.60
2022-09-16T14:53:02.153Z,20.60
2022-09-16T14:55:31.952Z,20.40
2022-09-16T14:57:59.756Z,20.40
2022-09-16T15:00:37.947Z,20.40
2022-09-16T15:03:15.478Z,20.40
2022-09-16T15:05:45.504Z,20.20
2022-09-16T15:08:33.026Z,20.10
2022-09-16T15:11:19.306Z,20.10
2022-09-16T15:13:56.849Z,20.10
2022-09-16T15:16:24.734Z,20.10
2022-09-16T15:18:59.450Z,20.00
2022-09-16T15:21:32.809Z,19.80
2022-09-16T15:24:01.758Z,19.60
2022-09-16T15:26:38.554Z,19.50
2022-09-16T15:31:46.654Z,19.40
2022-09-16T15:34:19.371Z,19.30
2022-09-16T15:36:55.085Z,19.40
2022-09-16T15:39:23.121Z,19.40
2022-09-16T15:41:50.541Z,19.50
2022-09-16T15:44:27.296Z,19.50
2022-09-16T15:46:54.057Z,19.50
2022-09-16T15:49:23.431Z,19.40
2022-09-16T15:51:53.156Z,19.20
2022-09-16T15:54:25.630Z,18.90
2022-09-16T15:57:02.538Z,18.60
2022-09-16T15:59:41.257Z,18.10
2022-09-16T16:02:21.532Z,17.60
2022-09-16T16:04:48.638Z,17.20
2022-09-16T16:08:05.106Z,16.90
2022-09-16T16:10:36.299Z,16.60
2022-09-16T16:13:06.530Z,16.30
2022-09-16T16:15:34.448Z,16.30
2022-09-16T16:18:04.336Z,16.10
2022-09-16T16:20:33.866Z,16.10
2022-09-16T16:23:01.196Z,16.00
2022-09-16T16:25:28.701Z,15.90
2022-09-16T16:27:57.547Z,15.70
2022-09-16T16:30:25.432Z,15.50
2022-09-16T16:32:52.146Z,15.30
2022-09-16T16:35:18.842Z,15.20
2022-09-16T16:37:47.186Z,15.00
2022-09-16T16:40:14.900Z,14.90
2022-09-16T16:42:43.575Z,14.80
2022-09-16T16:45:13.318Z,14.60
2022-09-16T16:47:40.253Z,14.50
2022-09-16T16:50:07.169Z,14.40
2022-09-16T16:52:33.786Z,14.30
2022-09-16T16:55:00.910Z,14.10
2022-09-16T16:57:27.914Z,14.10
2022-09-16T16:59:54.748Z,14.00
2022-09-16T17:02:21.554Z,13.90
2022-09-16T17:04:48.325Z,13.80
2022-09-16T17:07:25.818Z,13.70
2022-09-16T17:09:54.328Z,13.60
2022-09-16T17:12:21.107Z,13.50
2022-09-16T17:14:48.021Z,13.50
2022-09-16T17:17:14.767Z,13.40
2022-09-16T17:19:41.496Z,13.30
2022-09-16T17:22:08.131Z,13.20
2022-09-16T17:24:35.083Z,13.10
2022-09-16T17:27:02.267Z,13.10
2022-09-16T17:29:29.123Z,13.00
2022-09-16T17:32:00.778Z,12.90
2022-09-16T17:34:29.581Z,12.90
2022-09-16T17:36:58.202Z,12.80
2022-09-16T17:39:25.223Z,12.70
2022-09-16T17:41:52.700Z,12.70
2022-09-16T17:44:19.839Z,12.60
2022-09-16T17:46:47.351Z,12.50
2022-09-16T17:49:16.952Z,12.50
2022-09-16T17:51:44.291Z,12.40
2022-09-16T17:54:11.358Z,12.30
2022-09-16T17:56:38.095Z,12.30
2022-09-16T17:59:05.756Z,12.30
2022-09-16T18:01:32.470Z,12.20
2022-09-16T18:03:59.737Z,12.20
2022-09-16T18:06:30.778Z,12.20
2022-09-16T18:09:01.275Z,12.10
2022-09-16T18:11:28.373Z,12.00
2022-09-16T18:13:57.234Z,12.00
2022-09-16T18:16:25.108Z,12.00
2022-09-16T18:18:53.781Z,11.90
2022-09-16T18:21:21.576Z,11.90
2022-09-16T18:23:51.089Z,11.80
2022-09-16T18:26:18.788Z,11.80
2022-09-16T18:29:08.655Z,11.80
2022-09-16T18:31:34.881Z,11.80
2022-09-16T18:34:01.706Z,11.70
2022-09-16T18:36:30.194Z,11.80
2022-09-16T18:38:58.295Z,11.80
2022-09-16T18:41:28.464Z,11.90
2022-09-16T18:44:00.905Z,12.00
2022-09-16T18:46:45.767Z,12.10
2022-09-16T18:49:17.229Z,12.20
2022-09-16T18:51:50.807Z,12.30
2022-09-16T18:54:25.855Z,12.40
2022-09-16T18:56:55.506Z,12.40
2022-09-16T18:59:26.701Z,12.40
2022-09-16T19:01:55.784Z,12.50
2022-09-16T19:04:25.257Z,12.50
2022-09-16T19:06:54.750Z,12.40
2022-09-16T19:09:23.544Z,12.40
2022-09-16T19:11:54.969Z,12.40
2022-09-16T19:14:24.603Z,12.30
2022-09-16T19:16:51.994Z,12.30
2022-09-16T19:19:19.693Z,12.20
2022-09-16T19:21:47.304Z,12.20
2022-09-16T19:24:16.690Z,12.20
2022-09-16T19:26:44.770Z,12.20
2022-09-16T19:29:12.933Z,12.20
2022-09-16T19:31:41.455Z,12.10
2022-09-16T19:34:09.161Z,12.10
2022-09-16T19:36:37.207Z,12.10
2022-09-16T19:39:06.268Z,12.00
2022-09-16T19:41:35.224Z,12.00
2022-09-16T19:44:04.302Z,11.90
2022-09-16T19:46:34.531Z,11.80
2022-09-16T19:49:01.659Z,11.80
2022-09-16T19:51:29.085Z,11.70
2022-09-16T19:53:56.408Z,11.60
2022-09-16T19:56:26.065Z,11.60
2022-09-16T19:58:54.277Z,11.60
2022-09-16T20:01:31.923Z,11.60
2022-09-16T20:03:59.583Z,11.60
2022-09-16T20:06:32.853Z,11.60
2022-09-16T20:09:01.355Z,11.60
2022-09-16T20:11:31.518Z,11.60
2022-09-16T20:14:07.005Z,11.60
2022-09-16T20:16:39.112Z,11.60
2022-09-16T20:19:08.594Z,11.60
2022-09-16T20:21:35.821Z,11.50
2022-09-16T20:24:07.768Z,11.60
2022-09-16T20:26:35.721Z,11.50
2022-09-16T20:29:03.497Z,11.60
2022-09-16T20:31:34.179Z,11.60
2022-09-16T20:34:01.174Z,11.60
2022-09-16T20:36:32.839Z,11.60
2022-09-16T20:39:00.238Z,11.50
2022-09-16T20:41:29.962Z,11.50
2022-09-16T20:43:56.932Z,11.50
2022-09-16T20:46:25.165Z,11.40
2022-09-16T20:48:56.803Z,11.40
2022-09-16T20:51:26.066Z,11.30
2022-09-16T20:54:06.330Z,11.30
2022-09-16T20:56:38.219Z,11.30
2022-09-16T20:59:10.411Z,11.30
2022-09-16T21:01:38.552Z,11.20
2022-09-16T21:04:07.793Z,11.20
2022-09-16T21:06:36.127Z,11.10
2022-09-16T21:09:05.798Z,11.10
2022-09-16T21:11:33.349Z,11.10
2022-09-16T21:14:03.578Z,11.10
2022-09-16T21:16:31.998Z,11.00
2022-09-16T21:19:01.122Z,11.00
2022-09-16T21:21:29.127Z,11.00
2022-09-16T21:23:58.432Z,11.00
2022-09-16T21:26:26.589Z,11.00
2022-09-16T21:28:55.718Z,11.10
2022-09-16T21:31:23.233Z,11.00
2022-09-16T21:33:51.846Z,11.00
2022-09-16T21:36:20.678Z,11.10
2022-09-16T21:38:48.211Z,11.00
2022-09-16T21:41:17.343Z,11.00
2022-09-16T21:43:49.520Z,11.00
2022-09-16T21:46:20.095Z,11.10
2022-09-16T21:48:48.115Z,11.10
2022-09-16T21:51:17.043Z,11.10
2022-09-16T21:53:44.731Z,11.10
2022-09-16T21:56:13.703Z,11.20
2022-09-16T21:58:41.447Z,11.10
2022-09-16T22:01:11.378Z,11.10
2022-09-16T22:03:39.941Z,11.00
2022-09-16T22:06:08.762Z,11.00
2022-09-16T22:08:35.912Z,10.90
2022-09-16T22:11:04.231Z,10.90
2022-09-16T22:13:32.154Z,10.80
2022-09-16T22:15:59.968Z,10.80
2022-09-16T22:18:28.414Z,10.70
2022-09-16T22:20:57.684Z,10.70
2022-09-16T22:23:24.452Z,10.70
2022-09-16T22:25:51.180Z,10.70
2022-09-16T22:28:17.882Z,10.70
2022-09-16T22:30:44.529Z,10.70
2022-09-16T22:33:11.334Z,10.60
2022-09-16T22:35:38.114Z,10.60
2022-09-16T22:38:05.036Z,10.60
2022-09-16T22:40:31.954Z,10.50
2022-09-16T22:42:58.760Z,10.50
2022-09-16T22:45:25.417Z,10.50
2022-09-16T22:47:52.336Z,10.50
2022-09-16T22:50:19.185Z,10.50
2022-09-16T22:52:45.882Z,10.50
2022-09-16T22:55:12.500Z,10.60
2022-09-16T22:57:39.272Z,10.50
2022-09-16T23:00:06.585Z,10.60
2022-09-16T23:02:33.424Z,10.60
2022-09-16T23:05:00.187Z,10.70
2022-09-16T23:07:26.997Z,10.70
2022-09-16T23:09:53.641Z,10.70
2022-09-16T23:12:20.406Z,10.70
2022-09-16T23:14:47.083Z,10.80
2022-09-16T23:17:13.803Z,10.80
2022-09-16T23:19:40.561Z,10.80
2022-09-16T23:22:07.235Z,10.80
2022-09-16T23:24:33.868Z,10.80
2022-09-16T23:27:00.554Z,10.80
2022-09-16T23:29:27.228Z,10.80
2022-09-16T23:31:53.927Z,10.90
2022-09-16T23:34:21.725Z,10.90
2022-09-16T23:36:49.160Z,10.90
2022-09-16T23:39:16.881Z,10.90
2022-09-16T23:41:45.744Z,10.90
2022-09-16T23:44:14.117Z,10.90
2022-09-16T23:46:41.350Z,10.80
2022-09-16T23:49:09.992Z,10.80
2022-09-16T23:51:37.676Z,10.80
2022-09-16T23:54:04.823Z,10.80
2022-09-16T23:56:32.758Z,10.80
2022-09-16T23:59:00.756Z,10.80
